createdAt,value
2022-09-15T00:00:20.503Z,14.83
2022-09-15T00:01:20.562Z,14.85
2022-09-15T00:02:20.627Z,14.83
2022-09-15T00:03:20.521Z,14.86
2022-09-15T00:04:20.443Z,14.86
2022-09-15T00:05:20.433Z,14.87
2022-09-15T00:06:20.440Z,14.86
2022-09-15T00:07:20.421Z,14.86
2022-09-15T00:08:20.396Z,14.83
2022-09-15T00:09:20.388Z,14.83
2022-09-15T00:10:20.365Z,14.82
2022-09-15T00:11:20.375Z,14.80
2022-09-15T00:12:20.343Z,14.79
2022-09-15T00:13:20.335Z,14.79
2022-09-15T00:14:20.314Z,14.79
2022-09-15T00:15:20.316Z,14.80
2022-09-15T00:16:20.349Z,14.78
2022-09-15T00:17:20.282Z,14.78
2022-09-15T00:18:20.265Z,14.78
2022-09-15T00:19:20.256Z,14.79
2022-09-15T00:20:20.235Z,14.79
2022-09-15T00:21:20.238Z,14.79
2022-09-15T00:22:20.214Z,14.79
2022-09-15T00:23:20.208Z,14.80
2022-09-15T00:24:20.185Z,14.80
2022-09-15T00:25:20.174Z,14.79
2022-09-15T00:26:20.170Z,14.78
2022-09-15T00:27:20.154Z,14.75
2022-09-15T00:28:20.132Z,14.74
2022-09-15T00:29:20.123Z,14.74
2022-09-15T00:30:20.106Z,14.74
2022-09-15T00:31:20.225Z,14.74
2022-09-15T00:32:20.074Z,14.75
2022-09-15T00:33:20.083Z,14.72
2022-09-15T00:34:20.052Z,14.74
2022-09-15T00:35:20.034Z,14.74
2022-09-15T00:36:20.034Z,14.74
2022-09-15T00:37:20.014Z,14.72
2022-09-15T00:38:20.004Z,14.72
2022-09-15T00:39:19.983Z,14.72
2022-09-15T00:40:20.043Z,14.72
2022-09-15T00:41:19.963Z,14.72
2022-09-15T00:42:19.947Z,14.72
2022-09-15T00:43:19.923Z,14.72
2022-09-15T00:44:19.935Z,14.74
2022-09-15T00:45:19.903Z,14.74
2022-09-15T00:46:19.981Z,14.74
2022-09-15T00:47:20.136Z,14.74
2022-09-15T00:48:19.862Z,14.74
2022-09-15T00:49:19.854Z,14.72
2022-09-15T00:50:19.856Z,14.72
2022-09-15T00:51:19.824Z,14.71
2022-09-15T00:52:19.830Z,14.71
2022-09-15T00:53:19.794Z,14.72
2022-09-15T00:54:19.813Z,14.71
2022-09-15T00:55:19.976Z,14.67
2022-09-15T00:56:19.762Z,14.67
2022-09-15T00:57:19.761Z,14.67
2022-09-15T00:58:19.748Z,14.67
2022-09-15T00:59:19.713Z,14.66
2022-09-15T01:00:19.733Z,14.66
2022-09-15T01:01:19.729Z,14.67
2022-09-15T01:02:19.719Z,14.67
2022-09-15T01:03:19.657Z,14.67
2022-09-15T01:04:19.643Z,14.67
2022-09-15T01:05:19.645Z,14.66
2022-09-15T01:06:19.630Z,14.67
2022-09-15T01:07:19.604Z,14.67
2022-09-15T01:08:19.591Z,14.67
2022-09-15T01:09:19.593Z,14.67
2022-09-15T01:10:19.585Z,14.66
2022-09-15T01:11:19.542Z,14.64
2022-09-15T01:12:19.557Z,14.64
2022-09-15T01:13:19.522Z,14.63
2022-09-15T01:14:19.516Z,14.63
2022-09-15T01:15:19.513Z,14.63
2022-09-15T01:16:19.507Z,14.61
2022-09-15T01:17:19.477Z,14.61
2022-09-15T01:18:19.467Z,14.60
2022-09-15T01:19:19.442Z,14.61
2022-09-15T01:20:19.451Z,14.63
2022-09-15T01:21:19.413Z,14.63
2022-09-15T01:22:19.409Z,14.63
2022-09-15T01:23:19.404Z,14.63
2022-09-15T01:24:19.384Z,14.61
2022-09-15T01:25:19.371Z,14.60
2022-09-15T01:26:19.374Z,14.60
2022-09-15T01:27:41.105Z,14.61
2022-09-15T01:28:20.330Z,14.61
2022-09-15T01:29:21.676Z,14.61
2022-09-15T01:30:19.304Z,14.60
2022-09-15T01:31:19.364Z,14.61
2022-09-15T01:32:19.273Z,14.61
2022-09-15T01:33:19.261Z,14.61
2022-09-15T01:34:19.253Z,14.60
2022-09-15T01:35:19.227Z,14.61
2022-09-15T01:36:19.215Z,14.61
2022-09-15T01:37:19.203Z,14.60
2022-09-15T01:38:19.206Z,14.60
2022-09-15T01:39:19.184Z,14.60
2022-09-15T01:40:19.234Z,14.60
2022-09-15T01:41:19.147Z,14.60
2022-09-15T01:42:19.132Z,14.60
2022-09-15T01:43:19.121Z,14.61
2022-09-15T01:44:19.125Z,14.60
2022-09-15T01:45:19.109Z,14.57
2022-09-15T01:46:19.149Z,14.59
2022-09-15T01:47:19.070Z,14.59
2022-09-15T01:48:19.058Z,14.59
2022-09-15T01:49:19.053Z,14.59
2022-09-15T01:50:19.032Z,14.59
2022-09-15T01:51:19.012Z,14.59
2022-09-15T01:52:19.001Z,14.59
2022-09-15T01:53:18.996Z,14.60
2022-09-15T01:54:18.981Z,14.60
2022-09-15T01:55:18.962Z,14.57
2022-09-15T01:56:18.943Z,14.57
2022-09-15T01:57:18.932Z,14.59
2022-09-15T01:58:18.921Z,14.60
2022-09-15T01:59:18.922Z,14.59
2022-09-15T02:00:18.893Z,14.59
2022-09-15T02:01:18.930Z,14.59
2022-09-15T02:02:18.933Z,14.59
2022-09-15T02:03:18.849Z,14.57
2022-09-15T02:04:18.861Z,14.57
2022-09-15T02:05:18.822Z,14.56
2022-09-15T02:06:18.822Z,14.56
2022-09-15T02:07:18.804Z,14.56
2022-09-15T02:08:18.795Z,14.56
2022-09-15T02:09:18.780Z,14.57
2022-09-15T02:10:18.779Z,14.56
2022-09-15T02:11:18.742Z,14.56
2022-09-15T02:12:18.730Z,14.54
2022-09-15T02:13:18.710Z,14.52
2022-09-15T02:14:18.719Z,14.52
2022-09-15T02:15:18.692Z,14.48
2022-09-15T02:16:18.715Z,14.46
2022-09-15T02:17:18.665Z,14.46
2022-09-15T02:18:18.658Z,14.46
2022-09-15T02:19:18.652Z,14.44
2022-09-15T02:20:18.621Z,14.44
2022-09-15T02:21:18.665Z,14.44
2022-09-15T02:22:18.590Z,14.44
2022-09-15T02:23:18.586Z,14.41
2022-09-15T02:24:18.580Z,14.41
2022-09-15T02:25:18.558Z,14.41
2022-09-15T02:26:18.550Z,14.39
2022-09-15T02:27:18.523Z,14.41
2022-09-15T02:28:18.522Z,14.42
2022-09-15T02:29:18.519Z,14.42
2022-09-15T02:30:18.490Z,14.42
2022-09-15T02:31:18.519Z,14.41
2022-09-15T02:32:18.470Z,14.38
2022-09-15T02:33:18.452Z,14.39
2022-09-15T02:34:18.444Z,14.36
2022-09-15T02:35:18.410Z,14.35
2022-09-15T02:36:18.410Z,14.35
2022-09-15T02:37:18.390Z,14.35
2022-09-15T02:38:18.379Z,14.34
2022-09-15T02:39:18.383Z,14.34
2022-09-15T02:40:18.451Z,14.31
2022-09-15T02:41:18.330Z,14.29
2022-09-15T02:42:18.344Z,14.29
2022-09-15T02:43:18.317Z,14.27
2022-09-15T02:44:18.323Z,14.26
2022-09-15T02:45:18.398Z,14.23
2022-09-15T02:46:18.270Z,14.21
2022-09-15T02:47:18.265Z,14.19
2022-09-15T02:48:18.244Z,14.19
2022-09-15T02:49:18.248Z,14.17
2022-09-15T02:50:18.220Z,14.13
2022-09-15T02:51:18.198Z,14.16
2022-09-15T02:52:18.201Z,14.13
2022-09-15T02:53:18.180Z,14.12
2022-09-15T02:54:18.181Z,14.12
2022-09-15T02:55:18.153Z,14.09
2022-09-15T02:56:18.144Z,14.08
2022-09-15T02:57:18.124Z,14.06
2022-09-15T02:58:18.108Z,14.06
2022-09-15T02:59:18.110Z,14.06
2022-09-15T03:00:18.088Z,14.08
2022-09-15T03:01:18.249Z,14.06
2022-09-15T03:02:18.096Z,14.08
2022-09-15T03:03:18.038Z,14.06
2022-09-15T03:04:18.049Z,14.05
2022-09-15T03:05:18.018Z,14.06
2022-09-15T03:06:18.010Z,14.06
2022-09-15T03:07:17.979Z,14.05
2022-09-15T03:08:17.991Z,14.04
2022-09-15T03:09:17.979Z,14.05
2022-09-15T03:10:17.956Z,14.06
2022-09-15T03:11:17.938Z,14.06
2022-09-15T03:12:17.930Z,14.06
2022-09-15T03:13:17.921Z,14.06
2022-09-15T03:14:17.899Z,14.08
2022-09-15T03:15:17.882Z,14.08
2022-09-15T03:16:17.908Z,14.09
2022-09-15T03:17:17.849Z,14.09
2022-09-15T03:18:17.859Z,14.11
2022-09-15T03:19:17.819Z,14.09
2022-09-15T03:20:17.829Z,14.11
2022-09-15T03:21:17.799Z,14.09
2022-09-15T03:22:17.789Z,14.09
2022-09-15T03:23:17.789Z,14.09
2022-09-15T03:24:17.767Z,14.11
2022-09-15T03:25:17.755Z,14.11
2022-09-15T03:26:17.738Z,14.09
2022-09-15T03:27:17.718Z,14.11
2022-09-15T03:28:17.721Z,14.08
2022-09-15T03:29:17.699Z,14.09
2022-09-15T03:30:17.679Z,14.09
2022-09-15T03:31:17.716Z,14.08
2022-09-15T03:32:17.649Z,14.08
2022-09-15T03:33:17.647Z,14.09
2022-09-15T03:34:17.620Z,14.08
2022-09-15T03:35:17.608Z,14.09
2022-09-15T03:36:17.602Z,14.08
2022-09-15T03:37:17.600Z,14.08
2022-09-15T03:38:17.599Z,14.09
2022-09-15T03:39:17.573Z,14.09
2022-09-15T03:40:17.605Z,14.12
2022-09-15T03:41:17.559Z,14.12
2022-09-15T03:42:17.529Z,14.16
2022-09-15T03:43:18.796Z,14.16
2022-09-15T03:44:17.491Z,14.13
2022-09-15T03:45:17.477Z,14.13
2022-09-15T03:46:17.497Z,14.13
2022-09-15T03:47:17.455Z,14.16
2022-09-15T03:48:17.449Z,14.13
2022-09-15T03:49:17.417Z,14.11
2022-09-15T03:50:17.421Z,14.09
2022-09-15T03:51:17.399Z,14.08
2022-09-15T03:52:17.388Z,14.06
2022-09-15T03:53:17.386Z,14.02
2022-09-15T03:54:17.363Z,14.01
2022-09-15T03:55:17.361Z,13.98
2022-09-15T03:56:17.330Z,13.94
2022-09-15T03:57:17.308Z,13.93
2022-09-15T03:58:17.320Z,13.90
2022-09-15T03:59:17.289Z,13.88
2022-09-15T04:00:17.295Z,13.87
2022-09-15T04:01:17.309Z,13.86
2022-09-15T04:02:17.299Z,13.86
2022-09-15T04:03:17.246Z,13.84
2022-09-15T04:04:17.218Z,13.84
2022-09-15T04:05:17.209Z,13.81
2022-09-15T04:06:17.199Z,13.79
2022-09-15T04:07:17.179Z,13.76
2022-09-15T04:08:17.191Z,13.73
2022-09-15T04:09:17.159Z,13.72
2022-09-15T04:10:17.146Z,13.71
2022-09-15T04:11:17.128Z,13.69
2022-09-15T04:12:17.121Z,13.68
2022-09-15T04:13:17.119Z,13.66
2022-09-15T04:14:17.089Z,13.63
2022-09-15T04:15:17.079Z,13.62
2022-09-15T04:16:17.187Z,13.61
2022-09-15T04:17:17.050Z,13.61
2022-09-15T04:18:17.052Z,13.61
2022-09-15T04:19:17.022Z,13.55
2022-09-15T04:20:17.008Z,13.55
2022-09-15T04:21:16.996Z,13.54
2022-09-15T04:22:18.012Z,13.53
2022-09-15T04:23:16.974Z,13.53
2022-09-15T04:24:16.957Z,13.53
2022-09-15T04:25:16.938Z,13.50
2022-09-15T04:26:16.929Z,13.50
2022-09-15T04:27:16.912Z,13.47
2022-09-15T04:28:16.907Z,13.46
2022-09-15T04:29:16.880Z,13.44
2022-09-15T04:30:16.868Z,13.44
2022-09-15T04:31:16.905Z,13.46
2022-09-15T04:32:16.852Z,13.44
2022-09-15T04:33:16.838Z,13.46
2022-09-15T04:34:16.840Z,13.44
2022-09-15T04:35:16.801Z,13.46
2022-09-15T04:36:16.862Z,13.48
2022-09-15T04:37:16.779Z,13.50
2022-09-15T04:38:16.776Z,13.47
2022-09-15T04:39:16.755Z,13.47
2022-09-15T04:40:16.903Z,13.48
2022-09-15T04:41:16.722Z,13.46
2022-09-15T04:42:16.706Z,13.46
2022-09-15T04:43:16.710Z,13.46
2022-09-15T04:44:16.687Z,13.46
2022-09-15T04:45:16.666Z,13.46
2022-09-15T04:46:16.704Z,13.46
2022-09-15T04:47:16.649Z,13.44
2022-09-15T04:48:16.657Z,13.44
2022-09-15T04:49:16.618Z,13.44
2022-09-15T04:50:16.608Z,13.43
2022-09-15T04:51:16.589Z,13.43
2022-09-15T04:52:16.576Z,13.44
2022-09-15T04:53:16.577Z,13.44
2022-09-15T04:54:16.546Z,13.46
2022-09-15T04:55:16.668Z,13.46
2022-09-15T04:56:16.528Z,13.48
2022-09-15T04:57:16.516Z,13.48
2022-09-15T04:58:16.505Z,13.48
2022-09-15T04:59:16.487Z,13.51
2022-09-15T05:00:16.465Z,13.50
2022-09-15T05:01:16.532Z,13.50
2022-09-15T05:02:16.700Z,13.51
2022-09-15T05:03:16.449Z,13.53
2022-09-15T05:04:16.417Z,13.55
2022-09-15T05:05:16.398Z,13.61
2022-09-15T05:06:16.394Z,13.63
2022-09-15T05:07:16.387Z,13.63
2022-09-15T05:08:16.378Z,13.66
2022-09-15T05:09:16.346Z,13.69
2022-09-15T05:10:16.326Z,13.69
2022-09-15T05:11:16.334Z,13.69
2022-09-15T05:12:16.307Z,13.69
2022-09-15T05:13:16.306Z,13.71
2022-09-15T05:14:16.274Z,13.71
2022-09-15T05:15:16.269Z,13.68
2022-09-15T05:16:16.302Z,13.68
2022-09-15T05:17:16.248Z,13.69
2022-09-15T05:18:16.315Z,13.69
2022-09-15T05:19:16.209Z,13.69
2022-09-15T05:20:16.199Z,13.69
2022-09-15T05:21:16.192Z,13.71
2022-09-15T05:22:16.175Z,13.71
2022-09-15T05:23:16.179Z,13.71
2022-09-15T05:24:16.136Z,13.71
2022-09-15T05:25:16.137Z,13.73
2022-09-15T05:26:16.118Z,13.75
2022-09-15T05:27:16.105Z,13.75
2022-09-15T05:28:16.105Z,13.75
2022-09-15T05:29:16.075Z,13.76
2022-09-15T05:30:36.757Z,13.76
2022-09-15T05:31:17.119Z,13.79
2022-09-15T05:32:16.036Z,13.80
2022-09-15T05:33:16.040Z,13.80
2022-09-15T05:34:16.015Z,13.83
2022-09-15T05:35:15.997Z,13.86
2022-09-15T05:36:15.975Z,13.87
2022-09-15T05:37:15.965Z,13.90
2022-09-15T05:38:15.965Z,13.91
2022-09-15T05:39:15.944Z,13.93
2022-09-15T05:40:15.959Z,13.98
2022-09-15T05:41:15.917Z,13.99
2022-09-15T05:42:15.896Z,14.02
2022-09-15T05:43:15.907Z,14.06
2022-09-15T05:44:15.877Z,14.11
2022-09-15T05:45:15.858Z,14.16
2022-09-15T05:46:15.988Z,14.19
2022-09-15T05:47:15.842Z,14.21
2022-09-15T05:48:15.836Z,14.24
2022-09-15T05:49:15.818Z,14.27
2022-09-15T05:50:15.786Z,14.30
2022-09-15T05:51:15.802Z,14.31
2022-09-15T05:52:15.777Z,14.34
2022-09-15T05:53:15.780Z,14.35
2022-09-15T05:54:15.756Z,14.38
2022-09-15T05:55:15.731Z,14.38
2022-09-15T05:56:15.725Z,14.41
2022-09-15T05:57:15.707Z,14.41
2022-09-15T05:58:15.710Z,14.44
2022-09-15T05:59:15.676Z,14.44
2022-09-15T06:00:15.658Z,14.48
2022-09-15T06:01:15.647Z,14.48
2022-09-15T06:02:15.674Z,14.53
2022-09-15T06:03:15.690Z,14.56
2022-09-15T06:04:15.605Z,14.59
2022-09-15T06:05:15.595Z,14.61
2022-09-15T06:06:15.577Z,14.66
2022-09-15T06:07:15.576Z,14.71
2022-09-15T06:08:15.564Z,14.75
2022-09-15T06:09:15.539Z,14.79
2022-09-15T06:10:15.538Z,14.83
2022-09-15T06:11:15.521Z,14.87
2022-09-15T06:12:15.503Z,14.94
2022-09-15T06:13:15.504Z,14.97
2022-09-15T06:14:15.469Z,15.01
2022-09-15T06:15:15.473Z,15.05
2022-09-15T06:16:15.510Z,15.11
2022-09-15T06:17:15.428Z,15.15
2022-09-15T06:18:15.433Z,15.19
2022-09-15T06:19:15.407Z,15.25
2022-09-15T06:20:15.385Z,15.30
2022-09-15T06:21:15.374Z,15.34
2022-09-15T06:22:15.368Z,15.38
2022-09-15T06:23:15.374Z,15.46
2022-09-15T06:24:15.334Z,15.51
2022-09-15T06:25:15.327Z,15.60
2022-09-15T06:26:15.320Z,15.70
2022-09-15T06:27:15.299Z,15.78
2022-09-15T06:28:15.295Z,15.89
2022-09-15T06:29:15.265Z,16.03
2022-09-15T06:30:15.255Z,16.22
2022-09-15T06:31:15.244Z,16.37
2022-09-15T06:32:15.371Z,16.48
2022-09-15T06:33:15.231Z,16.55
2022-09-15T06:34:15.209Z,16.65
2022-09-15T06:35:15.190Z,16.73
2022-09-15T06:36:15.173Z,16.80
2022-09-15T06:37:15.191Z,16.82
2022-09-15T06:38:15.155Z,16.82
2022-09-15T06:39:15.146Z,16.82
2022-09-15T06:40:15.174Z,16.80
2022-09-15T06:41:15.115Z,16.77
2022-09-15T06:42:15.104Z,16.73
2022-09-15T06:43:15.094Z,16.70
2022-09-15T06:44:15.070Z,16.69
2022-09-15T06:45:15.066Z,16.65
2022-09-15T06:46:15.105Z,16.62
2022-09-15T06:47:15.047Z,16.59
2022-09-15T06:48:24.546Z,16.59
2022-09-15T06:49:16.008Z,16.60
2022-09-15T06:50:14.985Z,16.63
2022-09-15T06:51:14.981Z,16.66
2022-09-15T06:52:14.974Z,16.72
2022-09-15T06:53:14.948Z,16.73
2022-09-15T06:54:14.935Z,16.80
2022-09-15T06:55:14.925Z,16.88
2022-09-15T06:56:14.907Z,17.00
2022-09-15T06:57:14.908Z,17.03
2022-09-15T06:58:14.881Z,17.07
2022-09-15T06:59:14.876Z,17.17
2022-09-15T07:00:14.856Z,17.22
2022-09-15T07:01:14.859Z,17.30
2022-09-15T07:02:14.945Z,17.36
2022-09-15T07:03:14.931Z,17.38
2022-09-15T07:04:14.807Z,17.38
2022-09-15T07:05:14.793Z,17.38
2022-09-15T07:06:14.781Z,17.35
2022-09-15T07:07:14.777Z,17.32
2022-09-15T07:08:14.745Z,17.33
2022-09-15T07:09:14.742Z,17.33
2022-09-15T07:10:14.717Z,17.33
2022-09-15T07:11:14.706Z,17.35
2022-09-15T07:12:14.707Z,17.36
2022-09-15T07:13:14.684Z,17.40
2022-09-15T07:14:14.667Z,17.46
2022-09-15T07:15:14.656Z,17.51
2022-09-15T07:16:14.706Z,17.51
2022-09-15T07:17:14.645Z,17.54
2022-09-15T07:18:14.604Z,17.57
2022-09-15T07:19:14.613Z,17.58
2022-09-15T07:20:14.584Z,17.63
2022-09-15T07:21:14.594Z,17.66
2022-09-15T07:22:14.575Z,17.68
2022-09-15T07:23:14.544Z,17.68
2022-09-15T07:24:14.535Z,17.71
2022-09-15T07:25:14.517Z,17.70
2022-09-15T07:26:14.524Z,17.70
2022-09-15T07:27:14.494Z,17.71
2022-09-15T07:28:14.484Z,17.73
2022-09-15T07:29:14.474Z,17.71
2022-09-15T07:30:14.447Z,17.73
2022-09-15T07:31:14.532Z,17.74
2022-09-15T07:32:14.426Z,17.73
2022-09-15T07:33:14.416Z,17.71
2022-09-15T07:34:14.396Z,17.73
2022-09-15T07:35:14.386Z,17.70
2022-09-15T07:36:14.386Z,17.71
2022-09-15T07:37:14.353Z,17.70
2022-09-15T07:38:14.334Z,17.70
2022-09-15T07:39:14.335Z,17.70
2022-09-15T07:40:14.379Z,17.70
2022-09-15T07:41:14.325Z,17.70
2022-09-15T07:42:15.530Z,17.71
2022-09-15T07:43:14.311Z,17.71
2022-09-15T07:44:14.254Z,17.73
2022-09-15T07:45:14.253Z,17.73
2022-09-15T07:46:14.336Z,17.76
2022-09-15T07:47:14.224Z,17.77
2022-09-15T07:48:14.204Z,17.83
2022-09-15T07:49:14.209Z,18.11
2022-09-15T07:50:14.175Z,18.17
2022-09-15T07:51:14.187Z,18.26
2022-09-15T07:52:14.147Z,18.28
2022-09-15T07:53:14.146Z,18.35
2022-09-15T07:54:16.314Z,18.39
2022-09-15T07:55:15.120Z,18.49
2022-09-15T07:56:14.105Z,18.57
2022-09-15T07:57:14.089Z,18.69
2022-09-15T07:58:14.065Z,18.89
2022-09-15T07:59:14.063Z,19.12
2022-09-15T08:00:14.045Z,19.24
2022-09-15T08:01:14.065Z,19.28
2022-09-15T08:02:14.074Z,19.39
2022-09-15T08:03:14.006Z,19.58
2022-09-15T08:04:13.994Z,19.64
2022-09-15T08:05:13.985Z,19.64
2022-09-15T08:06:13.999Z,19.60
2022-09-15T08:07:13.957Z,19.58
2022-09-15T08:08:13.934Z,19.55
2022-09-15T08:09:13.928Z,19.50
2022-09-15T08:10:13.918Z,19.46
2022-09-15T08:11:18.311Z,19.42
2022-09-15T08:12:14.878Z,19.35
2022-09-15T08:13:13.876Z,19.32
2022-09-15T08:14:13.857Z,19.27
2022-09-15T08:15:13.861Z,19.20
2022-09-15T08:16:13.968Z,19.13
2022-09-15T08:17:13.823Z,19.09
2022-09-15T08:18:13.806Z,19.02
2022-09-15T08:19:13.798Z,18.94
2022-09-15T08:20:13.809Z,18.87
2022-09-15T08:21:13.798Z,18.82
2022-09-15T08:22:13.757Z,18.75
2022-09-15T08:23:13.737Z,18.69
2022-09-15T08:24:13.754Z,18.65
2022-09-15T08:25:13.724Z,18.62
2022-09-15T08:26:14.562Z,18.56
2022-09-15T08:27:13.694Z,18.53
2022-09-15T08:28:13.676Z,18.49
2022-09-15T08:29:13.657Z,18.42
2022-09-15T08:30:13.656Z,18.42
2022-09-15T08:31:13.753Z,18.39
2022-09-15T08:32:13.621Z,18.36
2022-09-15T08:33:13.607Z,18.35
2022-09-15T08:34:13.589Z,18.34
2022-09-15T08:35:13.585Z,18.29
2022-09-15T08:36:13.589Z,18.26
2022-09-15T08:37:13.556Z,18.23
2022-09-15T08:38:13.538Z,18.19
2022-09-15T08:39:13.526Z,18.16
2022-09-15T08:40:13.573Z,18.11
2022-09-15T08:41:13.526Z,18.09
2022-09-15T08:42:13.479Z,18.07
2022-09-15T08:43:13.487Z,18.02
2022-09-15T08:44:13.458Z,17.98
2022-09-15T08:45:13.449Z,17.91
2022-09-15T08:46:13.485Z,17.87
2022-09-15T08:47:13.418Z,17.81
2022-09-15T08:48:13.408Z,17.77
2022-09-15T08:49:13.395Z,17.74
2022-09-15T08:50:13.376Z,17.74
2022-09-15T08:51:13.378Z,17.73
2022-09-15T08:52:13.345Z,17.74
2022-09-15T08:53:13.340Z,17.77
2022-09-15T08:54:13.318Z,17.81
2022-09-15T08:55:13.316Z,17.87
2022-09-15T08:56:13.317Z,17.89
2022-09-15T08:57:13.288Z,17.94
2022-09-15T08:58:13.270Z,17.98
2022-09-15T08:59:13.256Z,18.02
2022-09-15T09:00:13.238Z,18.09
2022-09-15T09:01:13.333Z,18.11
2022-09-15T09:02:13.222Z,18.17
2022-09-15T09:03:13.257Z,18.21
2022-09-15T09:04:17.501Z,18.25
2022-09-15T09:05:13.179Z,18.31
2022-09-15T09:06:13.175Z,18.38
2022-09-15T09:07:13.148Z,18.47
2022-09-15T09:08:13.134Z,18.54
2022-09-15T09:09:13.117Z,18.64
2022-09-15T09:10:13.107Z,18.69
2022-09-15T09:11:13.118Z,18.74
2022-09-15T09:12:13.087Z,18.79
2022-09-15T09:13:13.069Z,18.86
2022-09-15T09:14:13.056Z,18.94
2022-09-15T09:15:13.042Z,18.97
2022-09-15T09:16:13.066Z,19.07
2022-09-15T09:17:13.018Z,19.15
2022-09-15T09:18:13.015Z,19.30
2022-09-15T09:19:12.978Z,19.55
2022-09-15T09:20:12.977Z,19.82
2022-09-15T09:21:12.967Z,20.10
2022-09-15T09:22:12.948Z,20.38
2022-09-15T09:23:12.934Z,20.57
2022-09-15T09:24:12.925Z,20.63
2022-09-15T09:25:26.513Z,20.68
2022-09-15T09:26:13.914Z,20.73
2022-09-15T09:27:12.893Z,20.88
2022-09-15T09:28:12.867Z,20.96
2022-09-15T09:29:12.849Z,21.09
2022-09-15T09:30:12.881Z,21.26
2022-09-15T09:31:12.912Z,21.45
2022-09-15T09:32:12.822Z,21.66
2022-09-15T09:33:12.800Z,21.77
2022-09-15T09:34:12.790Z,21.90
2022-09-15T09:35:12.778Z,22.08
2022-09-15T09:36:12.784Z,22.17
2022-09-15T09:37:12.753Z,22.26
2022-09-15T09:38:12.738Z,22.33
2022-09-15T09:39:12.720Z,22.45
2022-09-15T09:40:12.758Z,22.64
2022-09-15T09:41:12.698Z,22.76
2022-09-15T09:42:12.679Z,22.82
2022-09-15T09:43:12.660Z,22.88
2022-09-15T09:44:12.659Z,22.93
2022-09-15T09:45:12.630Z,23.04
2022-09-15T09:46:12.705Z,23.18
2022-09-15T09:47:12.627Z,23.31
2022-09-15T09:48:12.591Z,23.39
2022-09-15T09:49:12.581Z,23.49
2022-09-15T09:50:12.584Z,23.54
2022-09-15T09:51:12.573Z,23.54
2022-09-15T09:52:12.562Z,23.49
2022-09-15T09:53:12.531Z,23.44
2022-09-15T09:54:12.530Z,23.41
2022-09-15T09:55:12.501Z,23.37
2022-09-15T09:56:12.510Z,23.29
2022-09-15T09:57:12.475Z,23.23
2022-09-15T09:58:12.466Z,23.19
2022-09-15T09:59:12.453Z,23.14
2022-09-15T10:00:12.449Z,23.14
2022-09-15T10:01:12.473Z,23.12
2022-09-15T10:02:12.414Z,23.11
2022-09-15T10:03:12.396Z,23.09
2022-09-15T10:04:12.383Z,23.12
2022-09-15T10:05:12.436Z,23.14
2022-09-15T10:06:12.377Z,23.12
2022-09-15T10:07:12.345Z,23.04
2022-09-15T10:08:12.334Z,22.97
2022-09-15T10:09:12.320Z,22.91
2022-09-15T10:10:12.316Z,22.85
2022-09-15T10:11:12.297Z,22.79
2022-09-15T10:12:12.284Z,22.74
2022-09-15T10:13:12.274Z,22.67
2022-09-15T10:14:12.258Z,22.60
2022-09-15T10:15:12.256Z,22.57
2022-09-15T10:16:12.260Z,22.54
2022-09-15T10:17:12.216Z,22.49
2022-09-15T10:18:12.215Z,22.46
2022-09-15T10:19:12.182Z,22.41
2022-09-15T10:20:12.298Z,22.33
2022-09-15T10:21:12.153Z,22.29
2022-09-15T10:22:12.143Z,22.26
2022-09-15T10:23:12.127Z,22.23
2022-09-15T10:24:12.826Z,22.19
2022-09-15T10:25:12.125Z,22.12
2022-09-15T10:26:12.115Z,22.09
2022-09-15T10:27:12.085Z,22.06
2022-09-15T10:28:12.090Z,22.05
2022-09-15T10:29:12.070Z,22.04
2022-09-15T10:30:12.068Z,22.02
2022-09-15T10:31:12.024Z,22.04
2022-09-15T10:32:12.044Z,22.12
2022-09-15T10:33:12.000Z,22.15
2022-09-15T10:34:11.985Z,22.19
2022-09-15T10:35:11.976Z,22.24
2022-09-15T10:36:11.966Z,22.29
2022-09-15T10:37:11.946Z,22.29
2022-09-15T10:38:11.939Z,22.27
2022-09-15T10:39:11.921Z,22.29
2022-09-15T10:40:12.002Z,22.27
2022-09-15T10:41:11.895Z,22.27
2022-09-15T10:42:11.893Z,22.23
2022-09-15T10:43:11.863Z,22.23
2022-09-15T10:44:11.855Z,22.20
2022-09-15T10:45:11.857Z,22.17
2022-09-15T10:46:11.867Z,22.15
2022-09-15T10:47:11.826Z,22.12
2022-09-15T10:48:11.824Z,22.12
2022-09-15T10:49:11.785Z,22.09
2022-09-15T10:50:11.836Z,22.09
2022-09-15T10:51:11.754Z,22.09
2022-09-15T10:52:11.746Z,22.08
2022-09-15T10:53:11.735Z,22.06
2022-09-15T10:54:11.728Z,22.06
2022-09-15T10:55:11.718Z,22.05
2022-09-15T10:56:11.693Z,22.02
2022-09-15T10:57:11.675Z,21.99
2022-09-15T10:58:11.668Z,21.93
2022-09-15T10:59:11.655Z,21.90
2022-09-15T11:00:11.659Z,21.82
2022-09-15T11:01:11.670Z,21.74
2022-09-15T11:02:11.652Z,21.68
2022-09-15T11:03:11.598Z,21.61
2022-09-15T11:04:11.589Z,21.55
2022-09-15T11:05:11.581Z,21.51
2022-09-15T11:06:11.564Z,21.45
2022-09-15T11:07:11.545Z,21.38
2022-09-15T11:08:11.558Z,21.31
2022-09-15T11:09:11.517Z,21.26
2022-09-15T11:10:11.531Z,21.19
2022-09-15T11:11:11.488Z,21.13
2022-09-15T11:12:11.480Z,21.08
2022-09-15T11:13:11.467Z,21.00
2022-09-15T11:14:11.461Z,20.96
2022-09-15T11:15:11.453Z,20.90
2022-09-15T11:16:11.465Z,20.88
2022-09-15T11:17:11.407Z,20.87
2022-09-15T11:18:11.406Z,20.85
2022-09-15T11:19:11.381Z,20.85
2022-09-15T11:20:11.389Z,20.85
2022-09-15T11:21:11.358Z,20.87
2022-09-15T11:22:11.353Z,20.87
2022-09-15T11:23:11.327Z,20.83
2022-09-15T11:24:11.328Z,20.83
2022-09-15T11:25:11.330Z,20.83
2022-09-15T11:26:11.299Z,20.87
2022-09-15T11:27:11.277Z,20.93
2022-09-15T11:28:11.266Z,21.00
2022-09-15T11:29:11.252Z,21.08
2022-09-15T11:30:11.249Z,21.12
2022-09-15T11:31:11.342Z,21.15
2022-09-15T11:32:11.222Z,21.24
2022-09-15T11:33:11.201Z,21.34
2022-09-15T11:34:11.189Z,21.45
2022-09-15T11:35:11.191Z,21.48
2022-09-15T11:36:11.160Z,21.52
2022-09-15T11:37:11.150Z,21.61
2022-09-15T11:38:13.041Z,21.71
2022-09-15T11:39:11.122Z,21.75
2022-09-15T11:40:11.149Z,21.77
2022-09-15T11:41:11.092Z,21.75
2022-09-15T11:42:11.079Z,21.73
2022-09-15T11:43:11.072Z,21.68
2022-09-15T11:44:16.082Z,21.64
2022-09-15T11:45:12.050Z,21.58
2022-09-15T11:46:11.084Z,21.53
2022-09-15T11:47:11.010Z,21.43
2022-09-15T11:48:10.998Z,21.33
2022-09-15T11:49:10.980Z,21.22
2022-09-15T11:50:10.991Z,21.12
2022-09-15T11:51:10.960Z,21.03
2022-09-15T11:52:10.949Z,20.93
2022-09-15T11:53:10.945Z,20.83
2022-09-15T11:54:10.923Z,20.73
2022-09-15T11:55:10.922Z,20.64
2022-09-15T11:56:10.897Z,20.58
2022-09-15T11:57:10.879Z,20.54
2022-09-15T11:58:10.870Z,20.50
2022-09-15T11:59:10.851Z,20.48
2022-09-15T12:00:10.851Z,20.42
2022-09-15T12:01:10.823Z,20.37
2022-09-15T12:02:10.857Z,20.31
2022-09-15T12:03:10.882Z,20.23
2022-09-15T12:04:10.798Z,20.16
2022-09-15T12:05:11.154Z,20.08
2022-09-15T12:06:10.774Z,20.02
2022-09-15T12:07:13.702Z,19.97
2022-09-15T12:08:10.729Z,19.94
2022-09-15T12:09:10.720Z,19.94
2022-09-15T12:10:10.716Z,19.95
2022-09-15T12:11:10.714Z,19.97
2022-09-15T12:12:10.681Z,19.98
2022-09-15T12:13:10.660Z,20.02
2022-09-15T12:14:10.661Z,20.04
2022-09-15T12:15:10.651Z,20.07
2022-09-15T12:16:10.706Z,20.12
2022-09-15T12:17:10.613Z,20.17
2022-09-15T12:18:27.676Z,20.25
2022-09-15T12:19:11.588Z,20.26
2022-09-15T12:20:10.585Z,20.30
2022-09-15T12:21:10.561Z,20.27
2022-09-15T12:22:10.552Z,20.27
2022-09-15T12:23:10.532Z,20.31
2022-09-15T12:24:10.522Z,20.33
2022-09-15T12:25:10.512Z,20.31
2022-09-15T12:26:10.493Z,20.31
2022-09-15T12:27:10.481Z,20.30
2022-09-15T12:28:10.474Z,20.33
2022-09-15T12:29:10.451Z,20.34
2022-09-15T12:30:10.462Z,20.31
2022-09-15T12:31:10.513Z,20.30
2022-09-15T12:32:10.423Z,20.30
2022-09-15T12:33:10.392Z,20.22
2022-09-15T12:34:10.391Z,20.17
2022-09-15T12:35:13.602Z,20.10
2022-09-15T12:36:10.366Z,20.04
2022-09-15T12:37:10.343Z,19.98
2022-09-15T12:38:10.341Z,19.95
2022-09-15T12:39:10.325Z,19.90
2022-09-15T12:40:10.410Z,19.83
2022-09-15T12:41:10.289Z,19.78
2022-09-15T12:42:10.319Z,19.71
2022-09-15T12:43:10.264Z,19.68
2022-09-15T12:44:10.272Z,19.65
2022-09-15T12:45:10.288Z,19.61
2022-09-15T12:46:10.268Z,19.57
2022-09-15T12:47:10.212Z,19.52
2022-09-15T12:48:10.204Z,19.49
2022-09-15T12:49:10.188Z,19.47
2022-09-15T12:50:10.186Z,19.46
2022-09-15T12:51:10.158Z,19.46
2022-09-15T12:52:10.156Z,19.42